Bluff Point, New York
Current Conditions -  °F | °C
As of 6:53 PM on Monday 24 Nov 2014 (Local Time) from KPEO Reporting Station
Scattered Clouds Scattered Clouds  
Wind Chill: 58°   Ceiling: Unl
Heat Index: 58°   Visibility: 10mi
Dew Point: 48°   Wind: 15mph
Humidity: 70%   Direction: 220°SW
Pressure: 29.51"   Gusts: NA
Location:  42.58°N, 77.128°W
Report Text: KPEO 242353Z AUTO 22013KT 10SM FEW060 SCT075 SCT100 14/09 A2951 RMK AO2 PK WND 23031/2329 RAE10B30E43 SLP991 P0001 60001 T01440089 10194 20144 53045
Loading
Personal Weather Stations






























Interactive Weather Map New forecast layout! Learn more

10-Day Weather Forecast

Advertisements
Track Severe Weather on mobile